createdAt,value
2023-01-09T00:07:16.235Z,98.9
2023-01-09T00:27:16.223Z,99.0
2023-01-09T00:47:16.213Z,99.3
2023-01-09T01:07:16.214Z,99.5
2023-01-09T01:27:16.197Z,99.5
2023-01-09T01:47:16.184Z,99.5
2023-01-09T02:07:16.178Z,99.2
2023-01-09T02:27:16.166Z,99.3
2023-01-09T02:47:16.151Z,99.0
2023-01-09T03:07:16.155Z,99.2
2023-01-09T03:27:16.156Z,99.1
2023-01-09T03:47:16.136Z,99.1
2023-01-09T04:07:16.117Z,99.5
2023-01-09T04:27:16.119Z,99.8
2023-01-09T04:47:16.096Z,99.8
2023-01-09T05:07:16.112Z,99.9
2023-01-09T05:27:16.079Z,99.9
2023-01-09T05:47:16.077Z,100.0
2023-01-09T06:07:16.081Z,100.0
2023-01-09T06:27:16.063Z,100.0
2023-01-09T06:47:16.046Z,99.6
2023-01-09T07:07:16.030Z,98.3
2023-01-09T07:27:16.018Z,98.1
2023-01-09T07:47:16.056Z,98.7
2023-01-09T08:07:16.022Z,98.9
2023-01-09T08:27:15.995Z,98.3
2023-01-09T08:47:15.973Z,97.9
2023-01-09T09:07:15.970Z,98.8
2023-01-09T09:27:15.964Z,98.8
2023-01-09T09:47:15.954Z,97.7
2023-01-09T10:07:15.957Z,96.6
2023-01-09T10:27:16.107Z,96.5
2023-01-09T10:47:15.912Z,97.1
2023-01-09T11:07:15.892Z,96.6
2023-01-09T11:27:15.899Z,96.5
2023-01-09T11:47:15.902Z,95.7
2023-01-09T12:07:15.861Z,96.3
2023-01-09T12:27:15.863Z,96.5
2023-01-09T12:47:15.838Z,95.6
2023-01-09T13:07:15.824Z,95.1
2023-01-09T13:27:15.820Z,94.9
2023-01-09T13:47:15.811Z,94.5
2023-01-09T14:07:15.800Z,94.5
2023-01-09T14:27:15.784Z,95.4
2023-01-09T14:47:15.767Z,95.3
2023-01-09T15:27:15.821Z,94.1
2023-01-09T15:47:15.777Z,95.4
2023-01-09T16:07:15.732Z,95.9
2023-01-09T16:27:15.723Z,94.8
2023-01-09T16:47:15.715Z,94.8
2023-01-09T17:07:15.688Z,94.9
2023-01-09T17:27:15.687Z,95.3
2023-01-09T17:47:15.678Z,95.7
2023-01-09T18:07:15.653Z,95.7
2023-01-09T18:27:15.652Z,95.7
2023-01-09T18:47:15.686Z,95.0
2023-01-09T19:07:15.633Z,95.5
2023-01-09T19:27:15.656Z,96.0
2023-01-09T20:07:15.600Z,95.9
2023-01-09T20:27:15.637Z,96.0
2023-01-09T20:47:15.612Z,96.3
2023-01-09T21:07:15.594Z,96.4
2023-01-09T21:27:15.564Z,97.0
2023-01-09T21:47:15.584Z,96.6
2023-01-09T22:07:15.564Z,96.6
2023-01-09T22:27:15.560Z,97.1
2023-01-09T22:47:15.561Z,97.0
2023-01-09T23:07:15.552Z,97.3
2023-01-09T23:27:15.525Z,97.6
2023-01-09T23:47:15.512Z,97.8
